sensor_id;sensor_type;location;lat;lon;timestamp;pressure;altitude;pressure_sealevel;temperature;humidity
46846;BME280;33947;46.804;134.252;2022-07-21T00:01:52;100024.53;;;30.12;62.96
46846;BME280;33947;46.804;134.252;2022-07-21T00:04:57;100025.25;;;31.21;58.87
46846;BME280;33947;46.804;134.252;2022-07-21T00:08:01;100022.41;;;32.61;55.84
46846;BME280;33947;46.804;134.252;2022-07-21T00:11:05;100020.41;;;34.02;53.17
46846;BME280;33947;46.804;134.252;2022-07-21T00:14:10;100010.22;;;34.23;51.00
46846;BME280;33947;46.804;134.252;2022-07-21T00:17:15;100019.34;;;34.17;50.79
46846;BME280;33947;46.804;134.252;2022-07-21T00:20:20;100014.25;;;34.00;47.86
46846;BME280;33947;46.804;134.252;2022-07-21T00:23:24;100006.03;;;34.61;47.05
46846;BME280;33947;46.804;134.252;2022-07-21T00:26:28;100010.06;;;34.58;44.83
46846;BME280;33947;46.804;134.252;2022-07-21T00:29:33;100007.03;;;32.01;51.12
46846;BME280;33947;46.804;134.252;2022-07-21T00:32:37;100013.44;;;31.20;54.61
46846;BME280;33947;46.804;134.252;2022-07-21T00:35:42;100008.75;;;31.05;55.97
46846;BME280;33947;46.804;134.252;2022-07-21T00:38:46;100011.72;;;31.34;52.37
46846;BME280;33947;46.804;134.252;2022-07-21T00:41:51;100000.31;;;30.39;57.43
46846;BME280;33947;46.804;134.252;2022-07-21T00:44:55;100002.75;;;29.64;58.09
46846;BME280;33947;46.804;134.252;2022-07-21T00:48:00;99998.97;;;29.16;59.68
46846;BME280;33947;46.804;134.252;2022-07-21T00:51:04;99990.88;;;28.58;61.44
46846;BME280;33947;46.804;134.252;2022-07-21T00:54:09;99990.53;;;28.70;60.59
46846;BME280;33947;46.804;134.252;2022-07-21T00:57:14;99988.84;;;28.52;60.60
46846;BME280;33947;46.804;134.252;2022-07-21T01:00:21;99992.41;;;28.03;61.83
46846;BME280;33947;46.804;134.252;2022-07-21T01:03:26;99988.84;;;28.19;65.56
46846;BME280;33947;46.804;134.252;2022-07-21T01:06:31;99995.72;;;30.93;58.49
46846;BME280;33947;46.804;134.252;2022-07-21T01:09:35;99985.69;;;32.75;52.90
46846;BME280;33947;46.804;134.252;2022-07-21T01:12:40;99989.34;;;33.18;48.65
46846;BME280;33947;46.804;134.252;2022-07-21T01:15:44;99990.44;;;33.79;49.30
46846;BME280;33947;46.804;134.252;2022-07-21T01:18:49;99983.00;;;33.80;48.85
46846;BME280;33947;46.804;134.252;2022-07-21T01:21:54;99990.94;;;34.63;45.71
46846;BME280;33947;46.804;134.252;2022-07-21T01:24:58;99981.19;;;32.39;50.18
46846;BME280;33947;46.804;134.252;2022-07-21T01:28:04;99982.25;;;30.29;56.09
46846;BME280;33947;46.804;134.252;2022-07-21T01:31:08;99983.41;;;29.25;57.67
46846;BME280;33947;46.804;134.252;2022-07-21T01:38:05;99986.97;;;28.36;61.76
46846;BME280;33947;46.804;134.252;2022-07-21T01:41:29;99974.16;;;28.62;59.26
46846;BME280;33947;46.804;134.252;2022-07-21T01:44:34;99973.13;;;27.88;59.42
46846;BME280;33947;46.804;134.252;2022-07-21T01:47:38;99974.59;;;27.57;64.43
46846;BME280;33947;46.804;134.252;2022-07-21T01:50:44;99970.41;;;27.28;67.96
46846;BME280;33947;46.804;134.252;2022-07-21T01:53:48;99971.34;;;27.11;68.77
46846;BME280;33947;46.804;134.252;2022-07-21T01:56:52;99973.31;;;26.92;69.63
46846;BME280;33947;46.804;134.252;2022-07-21T01:59:56;99964.31;;;27.08;68.70
46846;BME280;33947;46.804;134.252;2022-07-21T02:03:01;99952.09;;;27.64;68.59
46846;BME280;33947;46.804;134.252;2022-07-21T02:06:17;99957.69;;;29.98;63.27
46846;BME280;33947;46.804;134.252;2022-07-21T02:09:22;99956.38;;;31.67;57.07
46846;BME280;33947;46.804;134.252;2022-07-21T02:12:26;99967.59;;;31.36;56.77
46846;BME280;33947;46.804;134.252;2022-07-21T02:15:30;99961.69;;;31.54;57.07
46846;BME280;33947;46.804;134.252;2022-07-21T02:18:35;99959.75;;;31.02;56.43
46846;BME280;33947;46.804;134.252;2022-07-21T02:21:39;99967.97;;;29.96;58.59
46846;BME280;33947;46.804;134.252;2022-07-21T02:24:43;99970.41;;;29.59;59.90
46846;BME280;33947;46.804;134.252;2022-07-21T02:27:48;99973.94;;;29.36;62.12
46846;BME280;33947;46.804;134.252;2022-07-21T02:30:52;99974.69;;;29.22;61.70
46846;BME280;33947;46.804;134.252;2022-07-21T02:33:57;99973.66;;;29.23;61.26
46846;BME280;33947;46.804;134.252;2022-07-21T02:37:01;99965.47;;;30.47;58.42
46846;BME280;33947;46.804;134.252;2022-07-21T02:40:05;99961.34;;;30.52;56.69
46846;BME280;33947;46.804;134.252;2022-07-21T02:43:09;99955.25;;;30.65;55.41
46846;BME280;33947;46.804;134.252;2022-07-21T02:46:13;99956.41;;;30.09;58.22
46846;BME280;33947;46.804;134.252;2022-07-21T02:49:18;99954.03;;;30.44;57.89
46846;BME280;33947;46.804;134.252;2022-07-21T02:52:22;99948.38;;;30.45;55.51
46846;BME280;33947;46.804;134.252;2022-07-21T02:55:27;99952.03;;;30.38;56.50
46846;BME280;33947;46.804;134.252;2022-07-21T02:58:31;99944.88;;;30.37;56.13
46846;BME280;33947;46.804;134.252;2022-07-21T03:01:35;99938.91;;;30.33;56.11
46846;BME280;33947;46.804;134.252;2022-07-21T03:04:39;99947.16;;;30.10;57.01
46846;BME280;33947;46.804;134.252;2022-07-21T03:07:43;99940.69;;;30.26;54.40
46846;BME280;33947;46.804;134.252;2022-07-21T03:10:47;99946.94;;;30.35;54.83
46846;BME280;33947;46.804;134.252;2022-07-21T03:13:51;99945.94;;;30.12;54.41
46846;BME280;33947;46.804;134.252;2022-07-21T03:16:56;99940.22;;;29.75;56.26
46846;BME280;33947;46.804;134.252;2022-07-21T03:20:01;99933.19;;;29.96;53.20
46846;BME280;33947;46.804;134.252;2022-07-21T03:23:06;99925.53;;;29.68;56.26
46846;BME280;33947;46.804;134.252;2022-07-21T03:26:11;99896.47;;;29.44;56.69
46846;BME280;33947;46.804;134.252;2022-07-21T03:29:16;99912.66;;;29.77;54.49
46846;BME280;33947;46.804;134.252;2022-07-21T03:32:20;99903.03;;;29.81;54.22
46846;BME280;33947;46.804;134.252;2022-07-21T03:35:25;99899.94;;;30.08;55.34
46846;BME280;33947;46.804;134.252;2022-07-21T03:38:29;99902.25;;;29.72;53.30
46846;BME280;33947;46.804;134.252;2022-07-21T03:41:33;99902.28;;;29.09;56.17
46846;BME280;33947;46.804;134.252;2022-07-21T03:44:37;99904.91;;;28.29;57.05
46846;BME280;33947;46.804;134.252;2022-07-21T03:47:41;99895.19;;;28.19;58.54
46846;BME280;33947;46.804;134.252;2022-07-21T03:50:45;99907.63;;;28.05;58.11
46846;BME280;33947;46.804;134.252;2022-07-21T03:53:50;99903.72;;;28.15;59.70
46846;BME280;33947;46.804;134.252;2022-07-21T03:56:54;99896.44;;;28.81;57.99
46846;BME280;33947;46.804;134.252;2022-07-21T03:59:58;99889.16;;;29.36;56.71
46846;BME280;33947;46.804;134.252;2022-07-21T04:03:13;99886.69;;;29.73;56.25
46846;BME280;33947;46.804;134.252;2022-07-21T04:06:17;99870.88;;;28.97;56.15
46846;BME280;33947;46.804;134.252;2022-07-21T04:09:22;99882.53;;;27.93;59.24
46846;BME280;33947;46.804;134.252;2022-07-21T04:12:27;99876.72;;;27.63;61.87
46846;BME280;33947;46.804;134.252;2022-07-21T04:15:32;99871.47;;;27.94;63.04
46846;BME280;33947;46.804;134.252;2022-07-21T04:18:37;99858.66;;;28.84;60.21
46846;BME280;33947;46.804;134.252;2022-07-21T04:21:43;99853.44;;;28.98;58.83
46846;BME280;33947;46.804;134.252;2022-07-21T04:24:47;99847.53;;;28.86;58.77
46846;BME280;33947;46.804;134.252;2022-07-21T04:27:51;99852.09;;;29.02;56.55
46846;BME280;33947;46.804;134.252;2022-07-21T04:30:56;99859.72;;;29.07;57.70
46846;BME280;33947;46.804;134.252;2022-07-21T04:34:00;99855.28;;;29.06;57.21
46846;BME280;33947;46.804;134.252;2022-07-21T04:37:04;99866.00;;;29.15;57.39
46846;BME280;33947;46.804;134.252;2022-07-21T04:40:09;99866.38;;;29.12;56.50
46846;BME280;33947;46.804;134.252;2022-07-21T04:43:13;99854.47;;;28.97;56.33
46846;BME280;33947;46.804;134.252;2022-07-21T04:46:19;99855.78;;;28.69;55.64
46846;BME280;33947;46.804;134.252;2022-07-21T04:49:24;99849.97;;;28.81;55.96
46846;BME280;33947;46.804;134.252;2022-07-21T04:52:28;99852.72;;;29.36;55.58
46846;BME280;33947;46.804;134.252;2022-07-21T04:55:32;99864.31;;;29.14;55.49
46846;BME280;33947;46.804;134.252;2022-07-21T04:58:36;99854.34;;;28.90;57.67
46846;BME280;33947;46.804;134.252;2022-07-21T05:01:40;99856.31;;;28.65;57.78
46846;BME280;33947;46.804;134.252;2022-07-21T05:04:45;99839.81;;;28.50;59.29
46846;BME280;33947;46.804;134.252;2022-07-21T05:07:49;99850.28;;;28.21;57.48
46846;BME280;33947;46.804;134.252;2022-07-21T05:10:54;99846.72;;;27.87;56.70
46846;BME280;33947;46.804;134.252;2022-07-21T05:13:58;99837.16;;;27.83;59.01
46846;BME280;33947;46.804;134.252;2022-07-21T05:17:02;99843.81;;;27.81;59.90
46846;BME280;33947;46.804;134.252;2022-07-21T05:20:07;99828.47;;;27.80;59.85
46846;BME280;33947;46.804;134.252;2022-07-21T05:23:12;99825.91;;;27.95;61.89
46846;BME280;33947;46.804;134.252;2022-07-21T05:26:16;99830.50;;;28.02;61.17
46846;BME280;33947;46.804;134.252;2022-07-21T05:29:20;99832.72;;;28.07;61.59
46846;BME280;33947;46.804;134.252;2022-07-21T05:32:24;99835.97;;;27.94;60.99
46846;BME280;33947;46.804;134.252;2022-07-21T05:35:28;99833.75;;;27.81;61.01
46846;BME280;33947;46.804;134.252;2022-07-21T05:38:34;99837.69;;;27.62;62.29
46846;BME280;33947;46.804;134.252;2022-07-21T05:41:38;99838.91;;;27.68;63.84
46846;BME280;33947;46.804;134.252;2022-07-21T05:44:42;99842.78;;;27.73;63.70
46846;BME280;33947;46.804;134.252;2022-07-21T05:47:46;99851.84;;;27.66;62.19
46846;BME280;33947;46.804;134.252;2022-07-21T05:50:50;99853.03;;;27.71;60.43
46846;BME280;33947;46.804;134.252;2022-07-21T05:53:54;99849.13;;;27.66;62.03
46846;BME280;33947;46.804;134.252;2022-07-21T05:56:59;99853.91;;;27.72;63.21
46846;BME280;33947;46.804;134.252;2022-07-21T06:00:03;99849.94;;;27.50;59.62
46846;BME280;33947;46.804;134.252;2022-07-21T06:03:09;99847.06;;;27.51;60.78
46846;BME280;33947;46.804;134.252;2022-07-21T06:06:16;99858.81;;;27.77;60.83
46846;BME280;33947;46.804;134.252;2022-07-21T06:09:21;99857.81;;;27.86;59.69
46846;BME280;33947;46.804;134.252;2022-07-21T06:12:27;99857.44;;;28.14;57.05
46846;BME280;33947;46.804;134.252;2022-07-21T06:15:31;99852.34;;;28.27;57.70
46846;BME280;33947;46.804;134.252;2022-07-21T06:18:36;99846.38;;;28.07;56.53
46846;BME280;33947;46.804;134.252;2022-07-21T06:21:40;99846.34;;;27.99;55.86
46846;BME280;33947;46.804;134.252;2022-07-21T06:24:48;99838.53;;;27.87;57.92
46846;BME280;33947;46.804;134.252;2022-07-21T06:27:52;99835.94;;;28.11;56.48
46846;BME280;33947;46.804;134.252;2022-07-21T06:30:57;99829.22;;;28.38;57.41
46846;BME280;33947;46.804;134.252;2022-07-21T06:34:01;99826.47;;;28.55;55.27
46846;BME280;33947;46.804;134.252;2022-07-21T06:37:05;99831.97;;;28.38;54.08
46846;BME280;33947;46.804;134.252;2022-07-21T06:40:10;99829.94;;;28.32;55.93
46846;BME280;33947;46.804;134.252;2022-07-21T06:43:15;99835.78;;;28.21;56.14
46846;BME280;33947;46.804;134.252;2022-07-21T06:46:30;99829.28;;;28.13;56.23
46846;BME280;33947;46.804;134.252;2022-07-21T06:49:35;99819.91;;;28.16;53.73
46846;BME280;33947;46.804;134.252;2022-07-21T06:52:39;99825.69;;;28.13;53.66
46846;BME280;33947;46.804;134.252;2022-07-21T06:55:44;99818.72;;;28.10;54.29
46846;BME280;33947;46.804;134.252;2022-07-21T06:58:48;99809.31;;;28.13;54.96
46846;BME280;33947;46.804;134.252;2022-07-21T07:01:53;99814.78;;;28.21;55.65
46846;BME280;33947;46.804;134.252;2022-07-21T07:04:57;99822.28;;;28.11;50.71
46846;BME280;33947;46.804;134.252;2022-07-21T07:08:09;99825.72;;;28.05;53.25
46846;BME280;33947;46.804;134.252;2022-07-21T07:11:14;99824.16;;;28.27;54.37
46846;BME280;33947;46.804;134.252;2022-07-21T07:14:18;99833.47;;;28.49;53.39
46846;BME280;33947;46.804;134.252;2022-07-21T07:17:22;99841.94;;;28.79;52.21
46846;BME280;33947;46.804;134.252;2022-07-21T07:20:27;99855.84;;;29.01;54.54
46846;BME280;33947;46.804;134.252;2022-07-21T07:23:34;99859.28;;;28.95;56.36
46846;BME280;33947;46.804;134.252;2022-07-21T07:26:38;99860.78;;;28.49;57.17
46846;BME280;33947;46.804;134.252;2022-07-21T07:29:43;99852.84;;;28.23;59.40
46846;BME280;33947;46.804;134.252;2022-07-21T07:32:47;99852.69;;;27.91;59.24
46846;BME280;33947;46.804;134.252;2022-07-21T07:35:51;99845.84;;;27.79;59.27
46846;BME280;33947;46.804;134.252;2022-07-21T07:38:56;99848.59;;;27.79;59.64
46846;BME280;33947;46.804;134.252;2022-07-21T07:42:01;99841.09;;;27.64;59.91
46846;BME280;33947;46.804;134.252;2022-07-21T07:45:06;99843.63;;;27.49;59.91
46846;BME280;33947;46.804;134.252;2022-07-21T07:48:10;99840.69;;;27.26;60.54
46846;BME280;33947;46.804;134.252;2022-07-21T07:51:14;99841.53;;;27.18;60.16
46846;BME280;33947;46.804;134.252;2022-07-21T07:54:19;99842.00;;;27.05;60.86
46846;BME280;33947;46.804;134.252;2022-07-21T07:57:23;99848.44;;;26.96;62.00
46846;BME280;33947;46.804;134.252;2022-07-21T08:00:27;99842.78;;;26.89;61.96
46846;BME280;33947;46.804;134.252;2022-07-21T08:03:52;99840.41;;;26.86;61.96
46846;BME280;33947;46.804;134.252;2022-07-21T08:06:57;99841.91;;;26.80;62.90
46846;BME280;33947;46.804;134.252;2022-07-21T08:10:09;99841.00;;;26.63;62.75
46846;BME280;33947;46.804;134.252;2022-07-21T08:13:33;99841.47;;;26.58;63.42
46846;BME280;33947;46.804;134.252;2022-07-21T08:16:38;99834.63;;;26.54;62.83
46846;BME280;33947;46.804;134.252;2022-07-21T08:19:43;99837.34;;;26.46;63.22
46846;BME280;33947;46.804;134.252;2022-07-21T08:22:48;99833.88;;;26.36;64.02
46846;BME280;33947;46.804;134.252;2022-07-21T08:25:52;99825.97;;;26.24;65.07
46846;BME280;33947;46.804;134.252;2022-07-21T08:28:57;99821.03;;;26.20;65.72
46846;BME280;33947;46.804;134.252;2022-07-21T08:32:01;99810.47;;;26.17;64.40
46846;BME280;33947;46.804;134.252;2022-07-21T08:35:06;99817.38;;;26.11;66.04
46846;BME280;33947;46.804;134.252;2022-07-21T08:38:12;99809.59;;;26.16;66.79
46846;BME280;33947;46.804;134.252;2022-07-21T08:41:16;99822.59;;;26.30;67.27
46846;BME280;33947;46.804;134.252;2022-07-21T08:44:21;99816.19;;;26.40;66.07
46846;BME280;33947;46.804;134.252;2022-07-21T08:47:25;99813.81;;;26.37;65.14
46846;BME280;33947;46.804;134.252;2022-07-21T08:50:32;99805.31;;;26.40;66.32
46846;BME280;33947;46.804;134.252;2022-07-21T08:53:36;99804.72;;;26.28;65.50
46846;BME280;33947;46.804;134.252;2022-07-21T08:56:40;99806.16;;;26.40;64.56
46846;BME280;33947;46.804;134.252;2022-07-21T08:59:45;99799.28;;;26.28;64.19
46846;BME280;33947;46.804;134.252;2022-07-21T09:02:50;99807.25;;;26.21;66.15
46846;BME280;33947;46.804;134.252;2022-07-21T09:06:12;99818.00;;;26.05;64.76
46846;BME280;33947;46.804;134.252;2022-07-21T09:09:19;99817.75;;;26.16;65.22
46846;BME280;33947;46.804;134.252;2022-07-21T09:12:24;99823.28;;;26.33;65.00
46846;BME280;33947;46.804;134.252;2022-07-21T09:15:29;99820.56;;;26.33;64.34
46846;BME280;33947;46.804;134.252;2022-07-21T09:18:46;99825.13;;;26.24;63.24
46846;BME280;33947;46.804;134.252;2022-07-21T09:21:52;99837.63;;;26.35;64.26
46846;BME280;33947;46.804;134.252;2022-07-21T09:24:57;99836.06;;;26.32;62.92
46846;BME280;33947;46.804;134.252;2022-07-21T09:28:06;99840.53;;;26.41;63.94
46846;BME280;33947;46.804;134.252;2022-07-21T09:31:11;99850.78;;;26.21;62.96
46846;BME280;33947;46.804;134.252;2022-07-21T09:34:18;99855.53;;;26.19;63.27
46846;BME280;33947;46.804;134.252;2022-07-21T09:37:25;99858.00;;;26.12;64.03
46846;BME280;33947;46.804;134.252;2022-07-21T09:40:29;99863.59;;;26.03;63.59
46846;BME280;33947;46.804;134.252;2022-07-21T09:43:46;99868.94;;;25.94;65.92
46846;BME280;33947;46.804;134.252;2022-07-21T09:46:53;99869.19;;;25.83;64.64
46846;BME280;33947;46.804;134.252;2022-07-21T09:50:14;99866.50;;;25.65;65.15
46846;BME280;33947;46.804;134.252;2022-07-21T09:53:39;99879.16;;;25.56;64.64
46846;BME280;33947;46.804;134.252;2022-07-21T09:56:51;99882.56;;;25.40;65.59
46846;BME280;33947;46.804;134.252;2022-07-21T09:59:58;99878.50;;;25.26;65.81
46846;BME280;33947;46.804;134.252;2022-07-21T10:03:19;99881.41;;;25.14;65.89
46846;BME280;33947;46.804;134.252;2022-07-21T10:06:26;99883.53;;;25.03;66.09
46846;BME280;33947;46.804;134.252;2022-07-21T10:09:31;99881.84;;;24.92;67.26
46846;BME280;33947;46.804;134.252;2022-07-21T10:12:35;99883.91;;;24.80;67.52
46846;BME280;33947;46.804;134.252;2022-07-21T10:15:39;99882.63;;;24.74;67.82
46846;BME280;33947;46.804;134.252;2022-07-21T10:22:15;99886.81;;;24.59;68.84
46846;BME280;33947;46.804;134.252;2022-07-21T10:25:15;99892.69;;;24.54;69.44
46846;BME280;33947;46.804;134.252;2022-07-21T10:28:20;99894.88;;;24.50;70.14
46846;BME280;33947;46.804;134.252;2022-07-21T10:31:27;99903.44;;;24.46;70.55
46846;BME280;33947;46.804;134.252;2022-07-21T10:34:35;99889.75;;;24.37;71.03
46846;BME280;33947;46.804;134.252;2022-07-21T10:40:43;99880.63;;;24.28;70.68
46846;BME280;33947;46.804;134.252;2022-07-21T10:43:47;99881.34;;;24.31;70.13
46846;BME280;33947;46.804;134.252;2022-07-21T10:50:14;99882.94;;;24.23;72.51
46846;BME280;33947;46.804;134.252;2022-07-21T10:53:33;99885.41;;;24.07;73.06
46846;BME280;33947;46.804;134.252;2022-07-21T10:56:38;99882.09;;;23.93;73.45
46846;BME280;33947;46.804;134.252;2022-07-21T11:03:18;99889.84;;;23.68;74.42
46846;BME280;33947;46.804;134.252;2022-07-21T11:06:23;99890.66;;;23.59;75.19
46846;BME280;33947;46.804;134.252;2022-07-21T11:09:31;99897.06;;;23.48;75.58
46846;BME280;33947;46.804;134.252;2022-07-21T11:12:54;99897.81;;;23.40;75.96
46846;BME280;33947;46.804;134.252;2022-07-21T11:16:13;99908.03;;;23.27;76.67
46846;BME280;33947;46.804;134.252;2022-07-21T11:22:41;99919.91;;;23.05;77.33
46846;BME280;33947;46.804;134.252;2022-07-21T11:25:48;99918.91;;;23.06;77.44
46846;BME280;33947;46.804;134.252;2022-07-21T11:29:05;99921.75;;;22.94;78.29
46846;BME280;33947;46.804;134.252;2022-07-21T11:32:10;99934.88;;;22.99;77.96
46846;BME280;33947;46.804;134.252;2022-07-21T11:35:15;99942.03;;;23.00;78.18
46846;BME280;33947;46.804;134.252;2022-07-21T11:38:20;99938.38;;;22.90;79.18
46846;BME280;33947;46.804;134.252;2022-07-21T11:41:24;99950.38;;;22.87;79.14
46846;BME280;33947;46.804;134.252;2022-07-21T11:44:28;99957.09;;;22.93;78.25
46846;BME280;33947;46.804;134.252;2022-07-21T11:47:32;99969.91;;;22.91;77.74
46846;BME280;33947;46.804;134.252;2022-07-21T11:50:37;99974.31;;;22.92;77.82
46846;BME280;33947;46.804;134.252;2022-07-21T11:53:44;99963.38;;;22.93;79.26
46846;BME280;33947;46.804;134.252;2022-07-21T11:56:52;99970.78;;;22.91;78.24
46846;BME280;33947;46.804;134.252;2022-07-21T11:59:57;99977.84;;;22.82;80.57
46846;BME280;33947;46.804;134.252;2022-07-21T12:03:06;99972.69;;;22.79;80.11
46846;BME280;33947;46.804;134.252;2022-07-21T12:06:11;99968.88;;;22.82;80.46
46846;BME280;33947;46.804;134.252;2022-07-21T12:09:16;99965.00;;;22.75;80.13
46846;BME280;33947;46.804;134.252;2022-07-21T12:12:27;99959.72;;;22.73;81.77
46846;BME280;33947;46.804;134.252;2022-07-21T12:15:33;99962.22;;;22.65;80.74
46846;BME280;33947;46.804;134.252;2022-07-21T12:18:37;99961.50;;;22.63;81.04
46846;BME280;33947;46.804;134.252;2022-07-21T12:24:51;99972.06;;;22.45;81.69
46846;BME280;33947;46.804;134.252;2022-07-21T12:27:56;99971.00;;;22.36;82.43
46846;BME280;33947;46.804;134.252;2022-07-21T12:31:08;99966.38;;;22.26;82.21
46846;BME280;33947;46.804;134.252;2022-07-21T12:34:14;99979.03;;;22.26;82.14
46846;BME280;33947;46.804;134.252;2022-07-21T12:38:11;99973.03;;;22.22;81.76
46846;BME280;33947;46.804;134.252;2022-07-21T12:41:01;99970.47;;;22.21;81.82
46846;BME280;33947;46.804;134.252;2022-07-21T12:44:25;99962.50;;;22.19;81.87
46846;BME280;33947;46.804;134.252;2022-07-21T12:47:30;99967.91;;;22.19;81.21
46846;BME280;33947;46.804;134.252;2022-07-21T12:50:34;99959.28;;;22.14;82.37
46846;BME280;33947;46.804;134.252;2022-07-21T12:53:45;99967.88;;;21.98;82.64
46846;BME280;33947;46.804;134.252;2022-07-21T12:56:50;99965.94;;;21.89;83.11
46846;BME280;33947;46.804;134.252;2022-07-21T12:59:54;99962.03;;;21.81;83.22
46846;BME280;33947;46.804;134.252;2022-07-21T13:02:59;99963.03;;;21.80;83.25
46846;BME280;33947;46.804;134.252;2022-07-21T13:06:04;99962.66;;;21.74;84.13
46846;BME280;33947;46.804;134.252;2022-07-21T13:09:11;99965.38;;;21.74;83.85
46846;BME280;33947;46.804;134.252;2022-07-21T13:12:21;99938.13;;;21.54;84.64
46846;BME280;33947;46.804;134.252;2022-07-21T13:15:25;99958.78;;;21.55;84.14
46846;BME280;33947;46.804;134.252;2022-07-21T13:18:29;99964.19;;;21.55;83.62
46846;BME280;33947;46.804;134.252;2022-07-21T13:21:33;99954.88;;;21.48;85.30
46846;BME280;33947;46.804;134.252;2022-07-21T13:24:37;99962.84;;;21.38;84.79
46846;BME280;33947;46.804;134.252;2022-07-21T13:27:42;99953.78;;;21.39;85.28
46846;BME280;33947;46.804;134.252;2022-07-21T13:30:50;99944.31;;;21.33;85.33
46846;BME280;33947;46.804;134.252;2022-07-21T13:33:54;99952.56;;;21.32;85.52
46846;BME280;33947;46.804;134.252;2022-07-21T13:36:58;99948.50;;;21.26;85.61
46846;BME280;33947;46.804;134.252;2022-07-21T13:40:03;99963.25;;;21.22;85.58
46846;BME280;33947;46.804;134.252;2022-07-21T13:43:27;99962.53;;;21.20;85.69
46846;BME280;33947;46.804;134.252;2022-07-21T13:46:40;99966.31;;;21.17;85.73
46846;BME280;33947;46.804;134.252;2022-07-21T13:49:44;99967.91;;;21.20;84.63
46846;BME280;33947;46.804;134.252;2022-07-21T13:52:48;99965.22;;;21.08;85.22
46846;BME280;33947;46.804;134.252;2022-07-21T13:55:52;99970.75;;;20.95;85.87
46846;BME280;33947;46.804;134.252;2022-07-21T13:58:57;99981.41;;;20.97;84.80
46846;BME280;33947;46.804;134.252;2022-07-21T14:02:01;99970.63;;;20.97;84.64
46846;BME280;33947;46.804;134.252;2022-07-21T14:05:05;99968.19;;;20.82;85.52
46846;BME280;33947;46.804;134.252;2022-07-21T14:08:10;99976.50;;;20.79;85.33
46846;BME280;33947;46.804;134.252;2022-07-21T14:11:14;99981.16;;;20.77;85.70
46846;BME280;33947;46.804;134.252;2022-07-21T14:14:19;99981.16;;;20.66;86.28
46846;BME280;33947;46.804;134.252;2022-07-21T14:17:29;99977.91;;;20.61;86.79
46846;BME280;33947;46.804;134.252;2022-07-21T14:20:34;99979.16;;;20.57;87.43
46846;BME280;33947;46.804;134.252;2022-07-21T14:23:38;99977.41;;;20.56;87.19
46846;BME280;33947;46.804;134.252;2022-07-21T14:26:42;99982.81;;;20.56;87.61
46846;BME280;33947;46.804;134.252;2022-07-21T14:29:48;99979.75;;;20.49;87.48
46846;BME280;33947;46.804;134.252;2022-07-21T14:32:52;99976.31;;;20.47;87.36
46846;BME280;33947;46.804;134.252;2022-07-21T14:35:56;99987.69;;;20.39;87.89
46846;BME280;33947;46.804;134.252;2022-07-21T14:39:00;99987.44;;;20.31;87.40
46846;BME280;33947;46.804;134.252;2022-07-21T14:42:04;99991.13;;;20.30;87.80
46846;BME280;33947;46.804;134.252;2022-07-21T14:45:09;99996.72;;;20.27;87.19
46846;BME280;33947;46.804;134.252;2022-07-21T14:48:20;99999.03;;;20.20;87.01
46846;BME280;33947;46.804;134.252;2022-07-21T14:51:25;99990.97;;;20.20;87.04
46846;BME280;33947;46.804;134.252;2022-07-21T14:54:30;99986.16;;;20.23;87.45
46846;BME280;33947;46.804;134.252;2022-07-21T14:57:35;99993.88;;;20.17;88.77
46846;BME280;33947;46.804;134.252;2022-07-21T15:00:39;99997.44;;;20.17;88.05
46846;BME280;33947;46.804;134.252;2022-07-21T15:03:43;100002.97;;;20.16;88.43
46846;BME280;33947;46.804;134.252;2022-07-21T15:06:48;99995.69;;;20.05;88.42
46846;BME280;33947;46.804;134.252;2022-07-21T15:09:52;99994.19;;;20.01;89.48
46846;BME280;33947;46.804;134.252;2022-07-21T15:12:58;99995.78;;;20.03;88.85
46846;BME280;33947;46.804;134.252;2022-07-21T15:16:03;99992.34;;;20.01;88.98
46846;BME280;33947;46.804;134.252;2022-07-21T15:19:07;99996.88;;;20.01;88.76
46846;BME280;33947;46.804;134.252;2022-07-21T15:22:11;100000.56;;;20.00;88.71
46846;BME280;33947;46.804;134.252;2022-07-21T15:25:15;99997.00;;;19.99;89.49
46846;BME280;33947;46.804;134.252;2022-07-21T15:28:28;99988.81;;;20.01;89.20
46846;BME280;33947;46.804;134.252;2022-07-21T15:31:32;99989.78;;;20.00;89.37
46846;BME280;33947;46.804;134.252;2022-07-21T15:34:36;99985.69;;;19.94;89.63
46846;BME280;33947;46.804;134.252;2022-07-21T15:37:40;99988.28;;;19.95;88.66
46846;BME280;33947;46.804;134.252;2022-07-21T15:40:45;99986.19;;;19.99;87.87
46846;BME280;33947;46.804;134.252;2022-07-21T15:43:50;99982.78;;;19.97;88.74
46846;BME280;33947;46.804;134.252;2022-07-21T15:46:56;99985.81;;;19.92;89.25
46846;BME280;33947;46.804;134.252;2022-07-21T15:50:00;99988.81;;;19.88;89.82
46846;BME280;33947;46.804;134.252;2022-07-21T15:53:09;99986.38;;;19.85;89.08
46846;BME280;33947;46.804;134.252;2022-07-21T15:56:13;99991.34;;;19.78;89.31
46846;BME280;33947;46.804;134.252;2022-07-21T15:59:17;99991.56;;;19.75;89.02
46846;BME280;33947;46.804;134.252;2022-07-21T16:02:40;99990.53;;;19.64;89.00
46846;BME280;33947;46.804;134.252;2022-07-21T16:05:45;99984.19;;;19.65;89.20
46846;BME280;33947;46.804;134.252;2022-07-21T16:08:49;99984.19;;;19.65;89.48
46846;BME280;33947;46.804;134.252;2022-07-21T16:11:53;99982.69;;;19.61;89.89
46846;BME280;33947;46.804;134.252;2022-07-21T16:14:58;99986.47;;;19.59;90.75
46846;BME280;33947;46.804;134.252;2022-07-21T16:18:04;99983.78;;;19.59;89.93
46846;BME280;33947;46.804;134.252;2022-07-21T16:21:09;99982.28;;;19.55;90.48
46846;BME280;33947;46.804;134.252;2022-07-21T16:24:13;99984.75;;;19.58;90.69